LEJR/XRY METAR and TAF weather

Enter ICAO airport designator
Station Type Date Time Source
LEJR METAR 2021/05/15 23:30 UTC NOAA

LEJR 152330Z AUTO 36003KT CAVOK 18/13 Q1016


Station Type Date Time Source
LEJR Decoded METAR 2021/05/15 23:30 UTC NOAA

Jerez De La Fronteraaeropuerto, Spain (LEJR) 36-45N 006-04W 28M
May 15, 2021 - 07:30 PM EDT / 2021.05.15 2330 UTC
Wind: from the N (360 degrees) at 3 MPH (3 KT):0
Visibility: greater than 7 mile(s):0
Temperature: 64 F (18 C)
Dew Point: 55 F (13 C)
Relative Humidity: 72%
Pressure (altimeter): 30.00 in. Hg (1016 hPa)
ob: LEJR 152330Z AUTO 36003KT CAVOK 18/13 Q1016
cycle: 23

Station Type Date Time Source
LEJR TAF 2021/05/15 21:27 UTC NOAA

TAF LEJR 152000Z 1521/1621 36008KT CAVOK TX34/1615Z TN13/1605Z PROB40
TEMPO 1616/1620 30010KT

Example: see airport list